createdAt,value
2022-08-31T00:02:23.759Z,67.58
2022-08-31T00:04:52.274Z,66.96
2022-08-31T00:07:21.612Z,67.74
2022-08-31T00:09:49.749Z,68.48
2022-08-31T00:12:18.237Z,67.92
2022-08-31T00:14:46.621Z,67.38
2022-08-31T00:17:14.740Z,68.46
2022-08-31T00:19:42.814Z,68.13
2022-08-31T00:22:10.903Z,68.30
2022-08-31T00:24:40.224Z,68.58
2022-08-31T00:27:08.075Z,68.27
2022-08-31T00:29:35.994Z,68.32
2022-08-31T00:32:05.063Z,68.74
2022-08-31T00:34:33.545Z,68.89
2022-08-31T00:37:01.988Z,68.35
2022-08-31T00:39:30.205Z,68.26
2022-08-31T00:41:59.608Z,68.90
2022-08-31T00:44:27.665Z,68.31
2022-08-31T00:46:55.660Z,69.79
2022-08-31T00:49:27.927Z,69.96
2022-08-31T00:51:59.956Z,70.03
2022-08-31T00:54:31.865Z,70.06
2022-08-31T00:57:01.666Z,70.66
2022-08-31T00:59:30.091Z,70.53
2022-08-31T01:01:58.081Z,71.25
2022-08-31T01:04:26.104Z,70.87
2022-08-31T01:06:54.832Z,70.87
2022-08-31T01:09:24.476Z,70.75
2022-08-31T01:11:52.802Z,69.99
2022-08-31T01:14:22.356Z,70.89
2022-08-31T01:16:53.484Z,70.32
2022-08-31T01:19:29.907Z,70.65
2022-08-31T01:22:03.351Z,70.99
2022-08-31T01:24:35.745Z,71.79
2022-08-31T01:27:07.777Z,72.35
2022-08-31T01:29:37.320Z,71.15
2022-08-31T01:32:06.499Z,71.29
2022-08-31T01:34:35.217Z,71.24
2022-08-31T01:37:03.905Z,71.17
2022-08-31T01:39:32.051Z,70.75
2022-08-31T01:42:01.362Z,71.79
2022-08-31T01:44:30.143Z,71.58
2022-08-31T01:46:58.080Z,71.93
2022-08-31T01:49:28.031Z,71.73
2022-08-31T01:51:56.498Z,72.75
2022-08-31T01:54:26.667Z,70.09
2022-08-31T01:56:55.726Z,71.60
2022-08-31T01:59:41.815Z,71.55
2022-08-31T02:02:41.990Z,70.38
2022-08-31T02:05:12.168Z,72.45
2022-08-31T02:07:40.079Z,71.58
2022-08-31T02:10:08.509Z,71.11
2022-08-31T02:12:36.493Z,72.85
2022-08-31T02:15:10.859Z,71.93
2022-08-31T02:17:38.796Z,70.71
2022-08-31T02:20:09.268Z,71.23
2022-08-31T02:22:37.532Z,72.25
2022-08-31T02:25:06.243Z,71.95
2022-08-31T02:27:37.488Z,71.98
2022-08-31T02:30:11.869Z,71.93
2022-08-31T02:32:39.867Z,71.89
2022-08-31T02:35:09.456Z,71.04
2022-08-31T02:37:37.936Z,71.58
2022-08-31T02:40:11.933Z,70.85
2022-08-31T02:42:53.167Z,72.07
2022-08-31T02:45:25.858Z,70.86
2022-08-31T02:47:58.929Z,70.27
2022-08-31T02:50:30.506Z,71.22
2022-08-31T02:52:59.483Z,72.21
2022-08-31T02:55:28.941Z,72.03
2022-08-31T02:57:56.923Z,71.09
2022-08-31T03:00:26.259Z,71.70
2022-08-31T03:02:54.973Z,71.97
2022-08-31T03:05:23.857Z,72.45
2022-08-31T03:07:52.322Z,72.51
2022-08-31T03:10:22.345Z,72.31
2022-08-31T03:12:51.057Z,72.29
2022-08-31T03:15:20.466Z,72.88
2022-08-31T03:17:49.830Z,72.59
2022-08-31T03:20:22.255Z,72.51
2022-08-31T03:22:50.734Z,72.36
2022-08-31T03:25:21.107Z,72.10
2022-08-31T03:27:50.424Z,72.23
2022-08-31T03:30:21.539Z,72.86
2022-08-31T03:33:03.143Z,72.62
2022-08-31T03:35:33.478Z,73.09
2022-08-31T03:38:03.315Z,74.12
2022-08-31T03:40:32.364Z,72.95
2022-08-31T03:43:00.598Z,74.26
2022-08-31T03:45:31.999Z,73.65
2022-08-31T03:48:00.379Z,74.04
2022-08-31T03:50:31.654Z,74.17
2022-08-31T03:53:10.697Z,75.01
2022-08-31T03:55:41.027Z,75.28
2022-08-31T03:58:10.507Z,74.23
2022-08-31T04:00:40.077Z,75.10
2022-08-31T04:03:19.401Z,74.48
2022-08-31T04:06:10.702Z,74.93
2022-08-31T04:09:01.407Z,74.12
2022-08-31T04:12:01.583Z,75.01
2022-08-31T04:14:48.113Z,73.85
2022-08-31T04:17:34.697Z,74.90
2022-08-31T04:20:29.443Z,75.41
2022-08-31T04:22:59.527Z,74.90
2022-08-31T04:25:38.075Z,75.85
2022-08-31T04:28:09.036Z,75.23
2022-08-31T04:30:39.535Z,74.73
2022-08-31T04:33:07.832Z,75.92
2022-08-31T04:35:35.966Z,76.17
2022-08-31T04:38:05.268Z,74.83
2022-08-31T04:40:33.253Z,75.24
2022-08-31T04:43:01.284Z,75.24
2022-08-31T04:45:29.325Z,74.30
2022-08-31T04:47:57.280Z,74.10
2022-08-31T04:50:25.408Z,74.40
2022-08-31T04:53:08.707Z,74.58
2022-08-31T04:55:40.993Z,74.26
2022-08-31T04:58:10.344Z,74.20
2022-08-31T05:00:38.637Z,74.12
2022-08-31T05:03:22.991Z,73.98
2022-08-31T05:05:54.332Z,75.63
2022-08-31T05:08:23.917Z,74.57
2022-08-31T05:10:52.149Z,74.76
2022-08-31T05:13:20.954Z,75.03
2022-08-31T05:15:50.707Z,74.97
2022-08-31T05:18:22.896Z,73.88
2022-08-31T05:20:57.311Z,74.61
2022-08-31T05:23:26.818Z,75.75
2022-08-31T05:25:54.757Z,74.55
2022-08-31T05:28:24.664Z,75.13
2022-08-31T05:30:52.604Z,74.20
2022-08-31T05:33:33.120Z,75.08
2022-08-31T05:36:02.608Z,75.60
2022-08-31T05:38:31.968Z,73.07
2022-08-31T05:41:00.610Z,73.88
2022-08-31T05:43:29.918Z,73.67
2022-08-31T05:45:58.621Z,73.77
2022-08-31T05:48:33.465Z,72.91
2022-08-31T05:51:04.151Z,72.18
2022-08-31T05:53:34.003Z,72.01
2022-08-31T05:56:04.424Z,72.35
2022-08-31T05:58:34.402Z,72.65
2022-08-31T06:01:02.523Z,73.64
2022-08-31T06:04:01.797Z,71.41
2022-08-31T06:06:30.393Z,70.77
2022-08-31T06:09:00.289Z,74.67
2022-08-31T06:11:31.520Z,70.84
2022-08-31T06:14:01.547Z,69.82
2022-08-31T06:16:32.279Z,69.38
2022-08-31T06:19:03.403Z,69.45
2022-08-31T06:21:33.492Z,69.18
2022-08-31T06:24:04.496Z,68.10
2022-08-31T06:26:35.531Z,69.90
2022-08-31T06:29:09.220Z,68.71
2022-08-31T06:31:42.569Z,68.13
2022-08-31T06:34:11.310Z,67.34
2022-08-31T06:36:57.854Z,68.04
2022-08-31T06:39:36.050Z,69.44
2022-08-31T06:42:12.727Z,67.15
2022-08-31T06:45:19.486Z,67.04
2022-08-31T06:47:58.309Z,65.65
2022-08-31T06:50:28.437Z,65.19
2022-08-31T06:52:58.582Z,64.60
2022-08-31T06:55:50.756Z,64.58
2022-08-31T06:58:37.500Z,64.69
2022-08-31T07:01:36.306Z,63.47
2022-08-31T07:04:35.854Z,62.62
2022-08-31T07:07:05.832Z,62.36
2022-08-31T07:09:34.053Z,61.74
2022-08-31T07:12:04.028Z,61.66
2022-08-31T07:14:32.051Z,61.68
2022-08-31T07:17:02.963Z,61.68
2022-08-31T07:19:32.309Z,60.37
2022-08-31T07:22:02.573Z,61.44
2022-08-31T07:24:35.100Z,59.53
2022-08-31T07:27:10.034Z,58.36
2022-08-31T07:29:44.209Z,57.66
2022-08-31T07:32:16.152Z,58.69
2022-08-31T07:34:45.042Z,58.04
2022-08-31T07:37:43.225Z,57.55
2022-08-31T07:40:29.550Z,58.56
2022-08-31T07:43:04.671Z,56.35
2022-08-31T07:45:37.688Z,56.11
2022-08-31T07:48:08.141Z,55.64
2022-08-31T07:50:58.714Z,57.41
2022-08-31T07:53:42.735Z,54.20
2022-08-31T07:56:35.069Z,54.58
2022-08-31T07:59:15.948Z,53.87
2022-08-31T08:01:46.725Z,53.79
2022-08-31T08:04:25.262Z,52.94
2022-08-31T08:07:16.663Z,55.30
2022-08-31T08:09:50.849Z,52.91
2022-08-31T08:12:38.670Z,51.91
2022-08-31T08:15:16.380Z,52.00
2022-08-31T08:18:03.332Z,53.07
2022-08-31T08:20:38.040Z,54.01
2022-08-31T08:23:13.705Z,53.07
2022-08-31T08:25:45.066Z,54.30
2022-08-31T08:28:38.777Z,52.98
2022-08-31T08:31:14.130Z,53.19
2022-08-31T08:33:42.511Z,54.12
2022-08-31T08:36:10.639Z,51.34
2022-08-31T08:38:43.586Z,52.38
2022-08-31T08:41:16.116Z,50.74
2022-08-31T08:43:52.449Z,50.87
2022-08-31T08:47:37.651Z,49.00
2022-08-31T08:49:25.845Z,47.04
2022-08-31T08:52:03.208Z,48.43
2022-08-31T08:54:33.989Z,46.52
2022-08-31T08:57:12.847Z,47.49
2022-08-31T08:59:42.824Z,47.60
2022-08-31T09:02:16.218Z,47.88
2022-08-31T09:05:04.340Z,49.11
2022-08-31T09:08:16.204Z,50.76
2022-08-31T09:10:46.644Z,50.19
2022-08-31T09:13:25.686Z,49.52
2022-08-31T09:16:20.648Z,50.37
2022-08-31T09:18:55.000Z,49.82
2022-08-31T09:21:25.993Z,49.08
2022-08-31T09:24:01.647Z,48.94
2022-08-31T09:26:35.505Z,48.44
2022-08-31T09:29:14.993Z,47.97
2022-08-31T09:31:46.476Z,47.47
2022-08-31T09:34:29.537Z,48.90
2022-08-31T09:37:16.309Z,46.75
2022-08-31T09:39:47.631Z,48.25
2022-08-31T09:42:28.984Z,46.20
2022-08-31T09:45:00.084Z,45.75
2022-08-31T09:47:48.570Z,44.94
2022-08-31T09:50:31.733Z,48.17
2022-08-31T09:53:32.143Z,46.66
2022-08-31T09:56:19.880Z,46.89
2022-08-31T09:58:50.948Z,46.38
2022-08-31T10:01:23.353Z,43.75
2022-08-31T10:03:54.060Z,45.29
2022-08-31T10:06:46.649Z,41.98
2022-08-31T10:09:28.580Z,43.68
2022-08-31T10:12:00.490Z,41.18
2022-08-31T10:14:37.143Z,44.99
2022-08-31T10:17:11.731Z,42.33
2022-08-31T10:19:56.191Z,41.66
2022-08-31T10:22:32.402Z,39.81
2022-08-31T10:25:14.637Z,39.34
2022-08-31T10:27:48.660Z,40.58
2022-08-31T10:30:28.551Z,40.29
2022-08-31T10:33:04.334Z,40.03
2022-08-31T10:35:37.533Z,38.57
2022-08-31T10:38:21.216Z,37.11
2022-08-31T10:40:55.022Z,39.30
2022-08-31T10:43:29.161Z,39.88
2022-08-31T10:46:00.166Z,38.71
2022-08-31T10:48:28.618Z,41.25
2022-08-31T10:51:05.749Z,39.35
2022-08-31T10:53:52.253Z,39.59
2022-08-31T10:56:26.305Z,38.21
2022-08-31T10:59:14.461Z,40.69
2022-08-31T11:01:52.983Z,36.83
2022-08-31T11:04:44.777Z,38.55
2022-08-31T11:07:27.552Z,39.25
2022-08-31T11:10:05.737Z,39.26
2022-08-31T11:12:42.350Z,42.08
2022-08-31T11:15:51.607Z,39.38
2022-08-31T11:19:04.077Z,39.04
2022-08-31T11:21:52.172Z,36.56
2022-08-31T11:24:49.217Z,35.81
2022-08-31T11:27:25.333Z,38.18
2022-08-31T11:29:58.661Z,39.34
2022-08-31T11:32:36.699Z,38.26
2022-08-31T11:35:10.234Z,42.16
2022-08-31T11:37:54.235Z,39.14
2022-08-31T11:41:11.179Z,39.59
2022-08-31T11:43:45.940Z,40.95
2022-08-31T11:46:45.790Z,40.38
2022-08-31T11:49:40.458Z,41.00
2022-08-31T11:52:25.482Z,40.33
2022-08-31T11:55:17.877Z,41.18
2022-08-31T11:58:21.441Z,39.73
2022-08-31T12:00:58.675Z,41.61
2022-08-31T12:03:50.463Z,44.20
2022-08-31T12:07:06.972Z,41.89
2022-08-31T12:10:14.080Z,39.71
2022-08-31T12:13:18.787Z,38.86
2022-08-31T12:16:37.801Z,41.20
2022-08-31T12:19:43.199Z,38.72
2022-08-31T12:22:43.496Z,39.38
2022-08-31T12:25:23.344Z,40.34
2022-08-31T12:28:07.502Z,38.48
2022-08-31T12:30:35.528Z,39.26
2022-08-31T12:33:10.927Z,38.71
2022-08-31T12:35:40.322Z,37.92
2022-08-31T12:38:10.170Z,37.43
2022-08-31T12:40:45.253Z,38.73
2022-08-31T12:43:18.175Z,37.99
2022-08-31T12:46:18.923Z,38.64
2022-08-31T12:49:10.371Z,38.17
2022-08-31T12:51:46.575Z,37.24
2022-08-31T12:54:41.330Z,36.57
2022-08-31T12:57:26.966Z,36.43
2022-08-31T13:00:04.809Z,40.38
2022-08-31T13:02:35.837Z,39.31
2022-08-31T13:05:04.188Z,36.38
2022-08-31T13:07:35.888Z,35.94
2022-08-31T13:10:07.375Z,39.84
2022-08-31T13:12:35.749Z,36.77
2022-08-31T13:15:03.857Z,38.53
2022-08-31T13:17:37.699Z,38.24
2022-08-31T13:20:08.841Z,37.97
2022-08-31T13:22:41.359Z,39.17
2022-08-31T13:25:24.965Z,37.20
2022-08-31T13:27:53.125Z,37.06
2022-08-31T13:30:25.400Z,36.33
2022-08-31T13:32:54.772Z,36.21
2022-08-31T13:35:26.242Z,36.50
2022-08-31T13:38:04.675Z,37.73
2022-08-31T13:40:37.329Z,35.53
2022-08-31T13:43:08.453Z,37.75
2022-08-31T13:45:42.068Z,36.98
2022-08-31T13:48:16.667Z,35.55
2022-08-31T13:50:53.110Z,34.74
2022-08-31T13:53:42.160Z,35.50
2022-08-31T13:56:38.660Z,38.48
2022-08-31T13:59:25.141Z,37.91
2022-08-31T14:01:56.392Z,37.28
2022-08-31T14:04:46.437Z,36.99
2022-08-31T14:07:20.418Z,36.08
2022-08-31T14:09:52.894Z,38.41
2022-08-31T14:12:34.752Z,36.44
2022-08-31T14:15:09.240Z,38.62
2022-08-31T14:17:42.461Z,39.70
2022-08-31T14:20:27.315Z,38.85
2022-08-31T14:22:55.195Z,39.40
2022-08-31T14:25:24.535Z,39.14
2022-08-31T14:27:52.432Z,40.37
2022-08-31T14:30:21.057Z,40.22
2022-08-31T14:32:49.001Z,42.36
2022-08-31T14:35:17.059Z,39.40
2022-08-31T14:37:45.705Z,38.91
2022-08-31T14:40:13.968Z,38.59
2022-08-31T14:42:44.265Z,39.92
2022-08-31T14:45:18.579Z,39.89
2022-08-31T14:47:50.797Z,37.63
2022-08-31T14:50:21.520Z,41.68
2022-08-31T14:52:53.027Z,40.75
2022-08-31T14:55:23.132Z,40.46
2022-08-31T14:57:58.238Z,41.10
2022-08-31T15:00:31.640Z,37.46
2022-08-31T15:03:02.482Z,40.16
2022-08-31T15:05:32.296Z,40.23
2022-08-31T15:08:00.213Z,38.69
2022-08-31T15:10:28.852Z,36.81
2022-08-31T15:13:05.517Z,37.38
2022-08-31T15:15:33.549Z,36.47
2022-08-31T15:18:04.704Z,38.18
2022-08-31T15:20:39.908Z,36.42
2022-08-31T15:23:09.442Z,36.53
2022-08-31T15:25:39.238Z,35.10
2022-08-31T15:28:08.740Z,36.56
2022-08-31T15:30:39.819Z,34.53
2022-08-31T15:33:11.065Z,37.32
2022-08-31T15:35:41.720Z,35.23
2022-08-31T15:38:10.553Z,37.83
2022-08-31T15:40:39.953Z,37.68
2022-08-31T15:43:15.721Z,38.57
2022-08-31T15:45:43.868Z,35.63
2022-08-31T15:48:29.666Z,35.62
2022-08-31T15:51:00.192Z,34.80
2022-08-31T15:53:30.228Z,35.28
2022-08-31T15:56:05.442Z,34.42
2022-08-31T15:58:38.909Z,34.95
2022-08-31T16:01:12.541Z,35.47
2022-08-31T16:03:41.955Z,34.47
2022-08-31T16:06:11.194Z,35.32
2022-08-31T16:08:41.186Z,34.87
2022-08-31T16:11:11.321Z,35.56
2022-08-31T16:13:47.872Z,35.37
2022-08-31T16:16:18.327Z,37.48
2022-08-31T16:18:48.274Z,35.31
2022-08-31T16:21:20.157Z,37.01
2022-08-31T16:23:50.325Z,35.84
2022-08-31T16:26:21.526Z,36.80
2022-08-31T16:28:50.972Z,36.56
2022-08-31T16:31:18.934Z,35.43
2022-08-31T16:33:48.074Z,36.76
2022-08-31T16:36:18.296Z,35.97
2022-08-31T16:38:46.843Z,37.26
2022-08-31T16:41:15.934Z,38.85
2022-08-31T16:43:43.821Z,39.42
2022-08-31T16:46:37.241Z,41.25
2022-08-31T16:49:20.009Z,41.86
2022-08-31T16:51:50.480Z,40.73
2022-08-31T16:54:19.850Z,40.49
2022-08-31T16:56:50.476Z,41.78
2022-08-31T16:59:20.164Z,42.56
2022-08-31T17:01:49.423Z,42.38
2022-08-31T17:04:35.045Z,42.07
2022-08-31T17:07:10.631Z,42.73
2022-08-31T17:09:40.003Z,43.60
2022-08-31T17:12:12.948Z,43.45
2022-08-31T17:14:45.601Z,44.28
2022-08-31T17:17:16.735Z,44.81
2022-08-31T17:19:45.890Z,45.35
2022-08-31T17:22:23.300Z,45.43
2022-08-31T17:24:56.262Z,44.45
2022-08-31T17:27:26.074Z,44.77
2022-08-31T17:29:56.058Z,45.09
2022-08-31T17:32:27.635Z,46.31
2022-08-31T17:34:56.834Z,46.51
2022-08-31T17:37:28.336Z,46.24
2022-08-31T17:39:57.342Z,45.75
2022-08-31T17:42:27.934Z,45.51
2022-08-31T17:44:57.110Z,45.86
2022-08-31T17:47:27.382Z,46.92
2022-08-31T17:49:55.511Z,46.25
2022-08-31T17:52:23.663Z,47.43
2022-08-31T17:54:52.300Z,48.18
2022-08-31T17:57:24.861Z,47.00
2022-08-31T17:59:54.715Z,47.61
2022-08-31T18:02:26.472Z,47.71
2022-08-31T18:04:56.121Z,46.70
2022-08-31T18:07:24.369Z,47.17
2022-08-31T18:09:53.730Z,47.74
2022-08-31T18:12:22.767Z,47.50
2022-08-31T18:14:51.239Z,46.82
2022-08-31T18:17:21.517Z,47.91
2022-08-31T18:19:49.799Z,47.75
2022-08-31T18:22:19.743Z,46.78
2022-08-31T18:24:47.921Z,46.70
2022-08-31T18:27:16.103Z,47.39
2022-08-31T18:29:44.991Z,47.21
2022-08-31T18:32:13.627Z,46.49
2022-08-31T18:34:44.619Z,47.07
2022-08-31T18:37:13.382Z,47.75
2022-08-31T18:40:02.347Z,49.10
2022-08-31T18:42:49.608Z,49.73
2022-08-31T18:45:19.322Z,48.09
2022-08-31T18:48:13.598Z,48.75
2022-08-31T18:50:38.508Z,48.75
2022-08-31T18:53:11.135Z,48.61
2022-08-31T18:55:45.012Z,49.51
2022-08-31T18:58:13.097Z,49.83
2022-08-31T19:00:41.466Z,48.76
2022-08-31T19:03:09.563Z,48.66
2022-08-31T19:05:40.023Z,48.55
2022-08-31T19:08:08.242Z,49.42
2022-08-31T19:10:36.174Z,49.83
2022-08-31T19:17:19.718Z,48.92
2022-08-31T19:19:49.895Z,49.04
2022-08-31T19:22:20.189Z,48.46
2022-08-31T19:24:49.709Z,50.78
2022-08-31T19:27:17.725Z,48.89
2022-08-31T19:29:45.650Z,49.84
2022-08-31T19:32:13.826Z,49.58
2022-08-31T19:34:43.827Z,49.55
2022-08-31T19:37:13.563Z,49.59
2022-08-31T19:39:45.837Z,50.03
2022-08-31T19:42:15.114Z,49.83
2022-08-31T19:44:55.878Z,49.85
2022-08-31T19:47:38.689Z,49.93
2022-08-31T19:50:13.538Z,49.42
2022-08-31T19:52:42.346Z,51.16
2022-08-31T19:55:11.582Z,51.55
2022-08-31T19:57:43.334Z,51.53
2022-08-31T20:00:12.538Z,51.66
2022-08-31T20:02:42.173Z,51.09
2022-08-31T20:05:12.126Z,51.20
2022-08-31T20:07:41.409Z,51.54
2022-08-31T20:10:10.483Z,51.26
2022-08-31T20:12:39.494Z,53.25
2022-08-31T20:15:08.398Z,52.46
2022-08-31T20:17:36.483Z,52.75
2022-08-31T20:20:04.990Z,52.74
2022-08-31T20:22:34.378Z,52.25
2022-08-31T20:25:03.479Z,52.41
2022-08-31T20:27:32.096Z,52.31
2022-08-31T20:30:00.106Z,52.81
2022-08-31T20:32:28.976Z,53.36
2022-08-31T20:34:57.638Z,52.74
2022-08-31T20:37:25.639Z,53.22
2022-08-31T20:39:54.941Z,53.05
2022-08-31T20:42:23.309Z,54.02
2022-08-31T20:44:51.232Z,52.70
2022-08-31T20:47:36.634Z,52.88
2022-08-31T20:50:07.195Z,54.67
2022-08-31T20:52:36.132Z,53.56
2022-08-31T20:55:07.262Z,54.65
2022-08-31T20:57:37.567Z,54.03
2022-08-31T21:00:07.724Z,53.73
2022-08-31T21:02:36.454Z,55.33
2022-08-31T21:07:57.505Z,54.42
2022-08-31T21:10:35.658Z,54.83
2022-08-31T21:13:08.782Z,54.55
2022-08-31T21:15:42.045Z,54.14
2022-08-31T21:18:09.794Z,55.61
2022-08-31T21:20:37.783Z,55.65
2022-08-31T21:23:10.444Z,55.69
2022-08-31T21:25:44.922Z,55.73
2022-08-31T21:28:18.308Z,54.54
2022-08-31T21:30:49.143Z,55.52
2022-08-31T21:33:17.639Z,56.40
2022-08-31T21:35:45.615Z,55.74
2022-08-31T21:38:13.635Z,55.87
2022-08-31T21:40:49.534Z,55.53
2022-08-31T21:43:17.533Z,56.24
2022-08-31T21:45:45.529Z,56.80
2022-08-31T21:48:13.468Z,57.38
2022-08-31T21:50:41.411Z,56.63
2022-08-31T21:53:09.459Z,56.29
2022-08-31T21:55:38.478Z,55.93
2022-08-31T21:58:07.891Z,55.88
2022-08-31T22:00:41.768Z,56.90
2022-08-31T22:03:10.579Z,56.68
2022-08-31T22:05:41.579Z,55.84
2022-08-31T22:08:09.613Z,56.51
2022-08-31T22:10:40.954Z,56.48
2022-08-31T22:13:12.437Z,56.68
2022-08-31T22:15:42.670Z,56.83
2022-08-31T22:18:46.146Z,56.41
2022-08-31T22:20:59.723Z,56.95
2022-08-31T22:23:27.722Z,56.58
2022-08-31T22:25:55.708Z,56.46
2022-08-31T22:28:27.676Z,57.59
2022-08-31T22:30:56.388Z,57.75
2022-08-31T22:33:24.419Z,58.24
2022-08-31T22:35:52.432Z,57.18
2022-08-31T22:38:20.564Z,56.54
2022-08-31T22:40:49.952Z,57.14
2022-08-31T22:43:18.700Z,57.68
2022-08-31T22:45:49.074Z,58.32
2022-08-31T22:48:17.627Z,56.59
2022-08-31T22:50:45.682Z,57.86
2022-08-31T22:53:14.065Z,57.42
2022-08-31T22:55:43.127Z,57.13
2022-08-31T22:58:12.506Z,56.42
2022-08-31T23:00:40.861Z,56.28
2022-08-31T23:03:13.596Z,56.96
2022-08-31T23:05:43.888Z,58.71
2022-08-31T23:08:12.354Z,57.37
2022-08-31T23:10:40.398Z,57.47
2022-08-31T23:13:08.420Z,58.81
2022-08-31T23:15:38.252Z,58.50
2022-08-31T23:18:10.380Z,58.75
2022-08-31T23:20:41.764Z,57.65
2022-08-31T23:23:10.413Z,59.53
2022-08-31T23:25:40.390Z,58.63
2022-08-31T23:28:08.675Z,59.39
2022-08-31T23:30:37.798Z,59.28
2022-08-31T23:33:05.814Z,58.37
2022-08-31T23:35:37.345Z,57.99
2022-08-31T23:38:06.801Z,59.00
2022-08-31T23:40:34.961Z,58.40
2022-08-31T23:43:04.685Z,58.69
2022-08-31T23:45:33.568Z,58.38
2022-08-31T23:48:01.516Z,58.58
2022-08-31T23:50:29.561Z,58.09
2022-08-31T23:52:57.628Z,57.79
2022-08-31T23:55:29.004Z,58.62
2022-08-31T23:57:59.405Z,57.84
